Time;durP1;ratioP1;P1;durP2;ratioP2;P2;SDS_P1;SDS_P2;PMS_P1;PMS_P2;Temp;Humidity;BMP_temperature;BMP_pressure;BME280_temperature;BME280_humidity;BME280_pressure;Samples;Min_cycle;Max_cycle;Signal;HPM_P1;HPM_P2
2023/05/26 00:02:06;;;;;;;7.40;4.50;;;13.30;99.90;;;14.12;100.00;98979.47;5046135;28;20468;-81
2023/05/26 00:04:35;;;;;;;7.43;4.40;;;13.30;99.90;;;14.07;100.00;98972.13;5041064;28;20457;-81
2023/05/26 00:07:06;;;;;;;8.13;4.33;;;13.30;99.90;;;14.05;100.00;98973.31;5046512;28;20529;-80
2023/05/26 00:09:34;;;;;;;9.00;4.53;;;13.20;99.90;;;14.02;100.00;98974.50;5043948;28;20504;-80
2023/05/26 00:12:05;;;;;;;9.73;4.90;;;13.20;99.90;;;14.01;100.00;98972.06;5045277;28;20468;-81
2023/05/26 00:14:34;;;;;;;8.60;5.87;;;13.10;99.90;;;13.97;100.00;98970.81;5044628;28;20476;-81
2023/05/26 00:17:03;;;;;;;6.13;4.90;;;13.20;99.90;;;13.91;100.00;98968.91;5042959;28;20457;-81
2023/05/26 00:19:35;;;;;;;11.37;4.97;;;13.20;99.90;;;13.89;100.00;98978.78;5042160;28;20551;-80
2023/05/26 00:22:05;;;;;;;9.90;4.47;;;13.10;99.90;;;13.81;100.00;98974.47;5045236;28;20990;-81
2023/05/26 00:24:34;;;;;;;11.60;5.03;;;13.00;99.90;;;13.81;100.00;98979.75;5048433;28;20460;-81
2023/05/26 00:27:02;;;;;;;10.30;4.80;;;13.00;99.90;;;13.81;100.00;98971.84;5046026;28;20484;-83
2023/05/26 00:29:31;;;;;;;12.60;4.73;;;13.00;99.90;;;13.78;100.00;98974.03;5029430;28;20575;-80
2023/05/26 00:32:00;;;;;;;8.93;4.67;;;13.00;99.90;;;13.73;100.00;98974.56;5045051;28;20978;-80
2023/05/26 00:34:29;;;;;;;11.47;4.87;;;12.90;99.90;;;13.69;100.00;98972.50;5044732;28;20462;-81
2023/05/26 00:36:58;;;;;;;13.30;5.07;;;12.90;99.90;;;13.68;100.00;98965.59;5049521;28;20476;-81
2023/05/26 00:39:30;;;;;;;13.93;5.17;;;12.90;99.90;;;13.64;100.00;98959.88;5044114;28;20982;-80
2023/05/26 00:41:59;;;;;;;8.33;4.70;;;12.80;99.90;;;13.64;100.00;98961.72;5045994;28;20947;-81
2023/05/26 00:44:27;;;;;;;8.30;4.90;;;12.80;99.90;;;13.60;100.00;98966.53;5048637;28;20476;-81
2023/05/26 00:46:56;;;;;;;10.27;4.97;;;12.80;99.90;;;13.52;100.00;98967.44;5046135;28;20452;-80
2023/05/26 00:49:25;;;;;;;13.23;4.77;;;12.70;99.90;;;13.51;100.00;98963.19;5046093;28;20496;-81
2023/05/26 00:51:55;;;;;;;8.80;5.33;;;12.70;99.90;;;13.46;100.00;98952.41;5043860;28;20465;-80
2023/05/26 00:54:24;;;;;;;12.27;4.57;;;12.70;99.90;;;13.41;100.00;98953.94;5046196;28;20496;-82
2023/05/26 00:56:55;;;;;;;14.27;5.60;;;12.60;99.90;;;13.40;100.00;98966.25;5048258;28;20487;-82
2023/05/26 00:59:24;;;;;;;13.70;4.67;;;12.60;99.90;;;13.37;100.00;98958.75;5046142;28;20519;-81
2023/05/26 01:01:53;;;;;;;13.83;4.80;;;12.60;99.90;;;13.34;100.00;98953.88;5045642;28;20469;-81
2023/05/26 01:04:22;;;;;;;8.57;4.23;;;12.50;99.90;;;13.34;100.00;98956.50;5044718;28;20876;-80
2023/05/26 01:06:52;;;;;;;17.73;5.40;;;12.50;99.90;;;13.28;100.00;98959.84;5047742;28;20515;-81
2023/05/26 01:09:22;;;;;;;10.60;5.00;;;12.50;99.90;;;13.25;100.00;98965.47;5047375;28;20493;-81
2023/05/26 01:12:01;;;;;;;7.90;4.00;;;12.50;99.90;;;13.23;100.00;98954.31;5047120;28;20477;-80
2023/05/26 01:14:44;;;;;;;13.97;5.33;;;12.40;99.90;;;13.24;100.00;98955.94;5045467;28;20471;-80
2023/05/26 01:17:19;;;;;;;7.77;4.53;;;12.40;99.90;;;13.21;100.00;98951.06;5046047;28;21120;-81
2023/05/26 01:20:09;;;;;;;11.00;5.20;;;12.50;99.90;;;13.17;100.00;98952.41;5045788;28;20469;-80
2023/05/26 01:23:13;;;;;;;11.27;5.80;;;12.40;99.90;;;13.13;100.00;98951.13;5047165;28;20898;-80
2023/05/26 01:26:21;;;;;;;7.53;4.77;;;12.30;99.90;;;13.07;100.00;98946.59;5045136;28;20464;-80
2023/05/26 01:28:56;;;;;;;9.50;5.00;;;12.30;99.90;;;13.05;100.00;98945.97;5045055;28;20477;-81
2023/05/26 01:31:24;;;;;;;10.17;4.97;;;12.30;99.90;;;13.03;100.00;98950.56;5047082;28;21024;-81
2023/05/26 01:33:53;;;;;;;10.70;5.03;;;12.30;99.90;;;12.96;100.00;98954.91;5043863;28;20880;-80
2023/05/26 01:36:23;;;;;;;10.60;4.77;;;12.20;99.90;;;12.87;100.00;98956.00;5047459;28;20726;-81
2023/05/26 01:38:52;;;;;;;7.60;5.00;;;12.10;99.90;;;12.87;100.00;98963.88;5046598;28;20488;-81
2023/05/26 01:41:29;;;;;;;10.27;5.20;;;12.10;99.90;;;12.88;100.00;98957.59;5044685;28;20478;-81
2023/05/26 01:44:09;;;;;;;14.27;4.60;;;12.10;99.90;;;12.86;100.00;98956.97;5047517;28;21154;-80
2023/05/26 01:46:48;;;;;;;9.47;4.70;;;12.10;99.90;;;12.89;100.00;98954.00;5045599;28;20515;-80
2023/05/26 01:49:21;;;;;;;11.00;4.60;;;12.00;99.90;;;12.89;100.00;98948.75;5047460;28;20495;-81
2023/05/26 01:51:56;;;;;;;13.57;5.17;;;12.00;99.90;;;12.83;100.00;98952.09;5045838;28;20445;-80
2023/05/26 01:54:32;;;;;;;10.57;4.90;;;12.00;99.90;;;12.83;100.00;98954.72;5046407;28;20492;-81
2023/05/26 01:57:01;;;;;;;6.90;4.73;;;12.00;99.90;;;12.83;100.00;98962.59;5045477;28;20464;-80
2023/05/26 01:59:33;;;;;;;15.23;5.37;;;11.90;99.90;;;12.86;100.00;98962.22;5046582;28;20966;-82
2023/05/26 02:02:04;;;;;;;8.30;4.93;;;11.90;99.90;;;12.86;100.00;98965.66;5045783;28;20469;-81
2023/05/26 02:04:34;;;;;;;13.93;4.90;;;12.00;99.90;;;12.81;100.00;98967.19;5048120;28;20449;-80
2023/05/26 02:07:06;;;;;;;11.83;5.30;;;12.00;99.90;;;12.82;100.00;98964.38;5044012;28;20550;-81
2023/05/26 02:09:36;;;;;;;9.97;4.20;;;12.00;99.90;;;12.79;100.00;98970.00;5044328;28;20475;-80
2023/05/26 02:12:07;;;;;;;10.70;4.97;;;11.90;99.90;;;12.81;100.00;98967.19;5045238;28;20498;-81
2023/05/26 02:14:37;;;;;;;9.60;5.07;;;12.00;99.90;;;12.75;100.00;98962.66;5045625;28;20456;-80
2023/05/26 02:17:08;;;;;;;6.07;4.50;;;11.90;99.90;;;12.74;100.00;98963.66;5044533;28;20465;-79
2023/05/26 02:19:37;;;;;;;17.00;5.47;;;11.90;99.90;;;12.68;100.00;98959.09;5045810;28;21218;-80
2023/05/26 02:22:06;;;;;;;7.10;4.70;;;11.90;99.90;;;12.65;100.00;98960.28;5042132;28;20840;-81
2023/05/26 02:24:36;;;;;;;8.90;4.90;;;11.90;99.90;;;12.64;100.00;98956.03;5046928;28;20456;-80
2023/05/26 02:27:06;;;;;;;8.13;4.97;;;11.80;99.90;;;12.63;100.00;98953.59;5045203;28;20490;-81
2023/05/26 02:29:34;;;;;;;6.23;4.60;;;11.80;99.90;;;12.58;100.00;98954.13;5044960;28;20465;-81
2023/05/26 02:32:06;;;;;;;17.13;5.23;;;11.80;99.90;;;12.56;100.00;98956.91;5045154;28;20481;-80
2023/05/26 02:34:37;;;;;;;6.87;5.00;;;11.80;99.90;;;12.55;100.00;98950.03;5044445;28;20461;-81
2023/05/26 02:37:06;;;;;;;13.33;5.37;;;11.80;99.90;;;12.50;100.00;98957.63;5045677;28;20452;-80
2023/05/26 02:39:34;;;;;;;7.70;5.00;;;11.70;99.90;;;12.47;100.00;98942.22;5044007;28;20515;-81
2023/05/26 02:42:03;;;;;;;10.87;5.70;;;11.70;99.90;;;12.47;100.00;98950.09;5043777;28;20484;-80
2023/05/26 02:44:32;;;;;;;9.00;5.17;;;11.60;99.90;;;12.46;100.00;98951.09;5045055;28;20526;-81
2023/05/26 02:47:01;;;;;;;8.47;5.40;;;11.60;99.90;;;12.46;100.00;98955.53;5042245;28;20907;-81
2023/05/26 02:49:31;;;;;;;14.13;5.30;;;11.60;99.90;;;12.44;100.00;98947.84;5044983;28;20469;-81
2023/05/26 02:52:00;;;;;;;9.30;5.13;;;11.60;99.90;;;12.38;100.00;98945.94;5046217;28;21020;-80
2023/05/26 02:54:28;;;;;;;8.17;4.33;;;11.60;99.90;;;12.29;100.00;98946.97;5045870;28;20652;-81
2023/05/26 02:56:57;;;;;;;7.80;4.90;;;11.60;99.90;;;12.26;100.00;98947.31;5044701;28;20484;-80
2023/05/26 02:59:26;;;;;;;8.87;5.00;;;11.50;99.90;;;12.22;100.00;98950.47;5044759;28;20479;-81
2023/05/26 03:01:55;;;;;;;10.93;4.93;;;11.50;99.90;;;12.19;100.00;98949.00;5047337;28;20948;-80
2023/05/26 03:04:23;;;;;;;18.90;10.37;;;11.40;99.90;;;12.18;100.00;98951.81;5038848;28;20473;-81
2023/05/26 03:06:53;;;;;;;12.40;5.77;;;11.40;99.90;;;12.16;100.00;98962.47;5043596;28;21144;-81
2023/05/26 03:09:24;;;;;;;11.53;4.53;;;11.40;99.90;;;12.15;100.00;98952.16;5040047;28;20462;-81
2023/05/26 03:11:53;;;;;;;13.00;6.60;;;11.40;99.90;;;12.10;100.00;98950.06;5041297;28;20510;-79
2023/05/26 03:14:21;;;;;;;29.63;15.67;;;11.40;99.90;;;12.05;100.00;98950.56;5040525;28;20960;-80
2023/05/26 03:16:51;;;;;;;10.20;5.20;;;11.30;99.90;;;12.02;100.00;98950.94;5039663;28;20461;-80
2023/05/26 03:19:21;;;;;;;13.80;4.83;;;11.30;99.90;;;12.02;100.00;98950.09;5040422;28;20487;-80
2023/05/26 03:21:50;;;;;;;8.77;5.00;;;11.30;99.90;;;12.01;100.00;98953.72;5042845;28;20469;-79
2023/05/26 03:24:20;;;;;;;9.60;4.80;;;11.20;99.90;;;12.01;100.00;98945.84;5044039;28;20464;-80
2023/05/26 03:26:51;;;;;;;9.30;5.30;;;11.20;99.90;;;12.00;100.00;98954.72;5043998;28;20460;-79
2023/05/26 03:29:20;;;;;;;11.40;4.90;;;11.20;99.90;;;12.01;100.00;98957.16;5038924;28;20534;-80
2023/05/26 03:31:50;;;;;;;10.10;4.77;;;11.20;99.90;;;11.98;100.00;98947.00;5040133;28;20502;-80
2023/05/26 03:34:18;;;;;;;9.50;5.07;;;11.20;99.90;;;11.95;100.00;98954.41;5043034;28;20463;-79
2023/05/26 03:36:49;;;;;;;10.67;4.80;;;11.20;99.90;;;11.94;100.00;98952.78;5044106;28;20547;-79
2023/05/26 03:39:18;;;;;;;7.60;4.80;;;11.20;99.90;;;11.94;100.00;98958.03;5045399;28;20485;-80
2023/05/26 03:41:49;;;;;;;10.63;5.07;;;11.20;99.90;;;11.92;100.00;98955.56;5048220;28;20953;-79
2023/05/26 03:44:20;;;;;;;13.50;5.50;;;11.10;99.90;;;11.91;100.00;98959.19;5044357;28;20460;-79
2023/05/26 03:46:49;;;;;;;8.00;4.80;;;11.10;99.90;;;11.89;100.00;98966.41;5046142;28;20994;-80
2023/05/26 03:49:20;;;;;;;11.20;5.07;;;11.10;99.90;;;11.89;100.00;98961.16;5043890;28;20484;-79
2023/05/26 03:51:49;;;;;;;9.00;4.90;;;11.10;99.90;;;11.88;100.00;98959.53;5043311;28;21042;-79
2023/05/26 03:54:18;;;;;;;12.47;4.80;;;11.10;99.90;;;11.88;100.00;98956.09;5042989;28;21240;-80
2023/05/26 03:56:49;;;;;;;13.53;5.20;;;11.10;99.90;;;11.87;100.00;98951.84;5044244;28;20464;-80
2023/05/26 03:59:18;;;;;;;11.57;5.53;;;11.10;99.90;;;11.86;100.00;98951.03;5043963;28;20951;-78
2023/05/26 04:01:47;;;;;;;9.77;5.03;;;11.10;99.90;;;11.83;100.00;98951.38;5045228;28;20515;-80
2023/05/26 04:04:17;;;;;;;12.70;5.07;;;11.10;99.90;;;11.79;100.00;98951.88;5048477;28;20468;-80
2023/05/26 04:06:46;;;;;;;5.80;4.13;;;11.10;99.90;;;11.76;100.00;98952.25;5048333;28;20461;-79
2023/05/26 04:09:15;;;;;;;18.57;5.70;;;11.10;99.90;;;11.75;100.00;98956.66;5045830;28;20747;-80
2023/05/26 04:11:43;;;;;;;8.33;4.43;;;11.00;99.90;;;11.75;100.00;98958.47;5044720;28;20900;-80
2023/05/26 04:14:13;;;;;;;8.23;4.80;;;11.00;99.90;;;11.74;100.00;98960.25;5051946;28;20857;-79
2023/05/26 04:16:44;;;;;;;11.27;5.40;;;11.00;99.90;;;11.77;100.00;98956.47;5047745;28;20963;-79
2023/05/26 04:19:13;;;;;;;8.67;6.03;;;11.00;99.90;;;11.75;100.00;98951.41;5049455;28;20482;-80
2023/05/26 04:21:42;;;;;;;6.57;4.63;;;11.00;99.90;;;11.77;100.00;98956.47;5044644;28;20460;-80
2023/05/26 04:24:11;;;;;;;9.63;4.73;;;11.00;99.90;;;11.76;100.00;98955.69;5042246;28;20457;-80
2023/05/26 04:26:40;;;;;;;10.57;5.03;;;11.00;99.90;;;11.76;100.00;98957.47;5041802;28;20461;-79
2023/05/26 04:29:09;;;;;;;17.07;8.90;;;11.00;99.90;;;11.74;100.00;98957.63;5044103;28;20464;-79
2023/05/26 04:31:41;;;;;;;8.70;4.90;;;11.10;99.90;;;11.73;100.00;98963.06;5037739;28;21026;-80
2023/05/26 04:34:10;;;;;;;8.40;5.63;;;11.00;99.90;;;11.73;100.00;98971.72;5042667;28;20521;-79
2023/05/26 04:36:39;;;;;;;13.30;6.10;;;11.00;99.90;;;11.71;100.00;98965.84;5047514;28;20467;-79
2023/05/26 04:39:10;;;;;;;11.93;5.30;;;11.00;99.90;;;11.70;100.00;98976.47;5048328;28;20486;-80
2023/05/26 04:41:39;;;;;;;8.33;5.50;;;11.00;99.90;;;11.73;100.00;98976.16;5049160;28;20545;-79
2023/05/26 04:44:09;;;;;;;15.17;5.00;;;11.00;99.90;;;11.73;100.00;98968.31;5049279;28;20467;-83
2023/05/26 04:46:40;;;;;;;16.63;6.00;;;11.00;99.90;;;11.73;100.00;98971.72;5047574;28;20567;-79
2023/05/26 04:49:10;;;;;;;10.03;5.30;;;11.00;99.90;;;11.76;100.00;98974.03;5049338;28;20461;-80
2023/05/26 04:51:39;;;;;;;14.63;5.10;;;11.00;99.90;;;11.80;100.00;98970.03;5029552;28;20543;-80
2023/05/26 04:54:08;;;;;;;11.73;4.83;;;11.10;99.90;;;11.84;100.00;98973.97;5046713;28;20522;-80
2023/05/26 04:56:37;;;;;;;10.50;5.23;;;11.10;99.90;;;11.88;100.00;98969.19;5049109;28;20460;-79
2023/05/26 04:59:06;;;;;;;15.23;5.50;;;11.10;99.90;;;11.92;100.00;98981.78;5046989;28;20468;-79
2023/05/26 05:01:36;;;;;;;14.57;5.63;;;11.10;99.90;;;11.96;100.00;98972.59;5046821;28;20473;-80
2023/05/26 05:04:08;;;;;;;7.67;5.00;;;11.20;99.90;;;12.01;100.00;98974.69;5048957;28;20495;-79
2023/05/26 05:06:38;;;;;;;9.83;4.67;;;11.20;99.90;;;12.03;100.00;98970.09;5049183;28;20485;-79
2023/05/26 05:09:07;;;;;;;13.93;5.60;;;11.30;99.90;;;12.06;100.00;98977.59;5056235;28;20441;-79
2023/05/26 05:11:36;;;;;;;13.73;5.20;;;11.30;99.90;;;12.09;100.00;98977.25;5046701;28;20860;-79
2023/05/26 05:14:05;;;;;;;8.60;5.70;;;11.40;99.90;;;12.14;100.00;98990.69;5049081;28;20484;-80
2023/05/26 05:16:33;;;;;;;23.53;4.87;;;11.40;99.90;;;12.17;100.00;98985.09;5047582;28;20792;-80
2023/05/26 05:19:03;;;;;;;14.83;5.50;;;11.40;99.90;;;12.22;100.00;98982.75;5048797;28;20548;-82
2023/05/26 05:21:33;;;;;;;7.17;5.30;;;11.40;99.90;;;12.24;100.00;98977.34;5047691;28;20477;-79
2023/05/26 05:24:03;;;;;;;11.23;5.20;;;11.50;99.90;;;12.29;100.00;98988.09;5047397;28;20883;-80
2023/05/26 05:26:32;;;;;;;16.00;5.23;;;11.60;99.90;;;12.32;100.00;98982.53;5048067;28;20519;-79
2023/05/26 05:29:01;;;;;;;14.90;5.00;;;11.60;99.90;;;12.35;100.00;98983.00;5047237;28;20492;-79
2023/05/26 05:31:30;;;;;;;11.20;6.17;;;11.60;99.90;;;12.37;100.00;98982.81;5048624;28;20461;-80
2023/05/26 05:33:59;;;;;;;13.83;5.70;;;11.60;99.90;;;12.40;100.00;98987.69;5047397;28;20469;-80
2023/05/26 05:36:28;;;;;;;14.67;6.00;;;11.70;99.90;;;12.43;100.00;98977.69;5047186;28;20464;-79
2023/05/26 05:38:59;;;;;;;9.93;5.37;;;11.70;99.90;;;12.48;100.00;98987.66;5046791;28;20481;-80
2023/05/26 05:41:29;;;;;;;17.03;5.60;;;11.80;99.90;;;12.51;100.00;98984.66;5047225;28;20465;-80
2023/05/26 05:43:58;;;;;;;16.57;6.10;;;11.80;99.90;;;12.55;100.00;98978.91;5050031;28;20468;-80
2023/05/26 05:46:28;;;;;;;9.10;5.03;;;11.80;99.90;;;12.59;100.00;98984.63;5046736;28;20548;-80
2023/05/26 05:49:00;;;;;;;10.87;5.07;;;11.90;99.90;;;12.63;100.00;98980.66;5049718;28;20491;-80
2023/05/26 05:51:31;;;;;;;15.87;5.33;;;11.90;99.90;;;12.67;100.00;98986.38;5030552;28;20532;-79
2023/05/26 05:54:01;;;;;;;10.03;5.00;;;12.00;99.90;;;12.69;100.00;98987.81;5047798;28;20471;-79
2023/05/26 05:56:30;;;;;;;14.93;5.37;;;12.00;99.90;;;12.74;100.00;98993.31;5046372;28;20464;-80
2023/05/26 05:58:58;;;;;;;14.23;5.60;;;12.00;99.90;;;12.77;100.00;98990.38;5045724;28;20476;-79
2023/05/26 06:01:27;;;;;;;11.03;5.07;;;12.00;99.90;;;12.81;100.00;98993.44;5046125;28;20870;-79
2023/05/26 06:03:56;;;;;;;13.43;6.10;;;12.00;99.90;;;12.88;100.00;98994.34;5047809;28;20491;-79
2023/05/26 06:06:25;;;;;;;14.63;5.67;;;12.10;99.90;;;12.90;100.00;98997.63;5046565;28;20471;-79
2023/05/26 06:08:53;;;;;;;8.07;4.97;;;12.10;99.90;;;12.93;100.00;98997.28;5046606;28;20469;-79
2023/05/26 06:11:23;;;;;;;16.37;5.70;;;12.10;99.90;;;12.97;100.00;98996.75;5046368;28;20544;-79
2023/05/26 06:13:52;;;;;;;7.53;5.70;;;12.20;99.90;;;13.02;100.00;98994.38;5043580;28;20488;-80
2023/05/26 06:16:21;;;;;;;14.33;5.97;;;12.20;99.90;;;13.06;100.00;98992.22;5043816;28;20464;-79
2023/05/26 06:18:50;;;;;;;12.87;5.73;;;12.20;99.90;;;13.07;100.00;99004.34;5048062;28;20904;-79
2023/05/26 06:21:19;;;;;;;17.63;5.47;;;12.20;99.90;;;13.14;100.00;99000.06;5047660;28;20833;-79
2023/05/26 06:23:47;;;;;;;8.50;5.50;;;12.30;99.90;;;13.20;100.00;98999.31;5045308;28;20461;-80
2023/05/26 06:26:16;;;;;;;11.60;5.53;;;12.40;99.90;;;13.25;100.00;98998.78;5045758;28;20473;-79
2023/05/26 06:28:46;;;;;;;19.00;5.50;;;12.50;99.90;;;13.26;100.00;99008.31;5044518;28;20469;-79
2023/05/26 06:31:14;;;;;;;18.90;5.80;;;12.50;99.90;;;13.28;100.00;98996.63;5047942;28;20460;-79
2023/05/26 06:33:44;;;;;;;11.87;5.63;;;12.50;99.90;;;13.28;100.00;98994.00;5046741;28;20544;-79
2023/05/26 06:36:13;;;;;;;11.53;5.80;;;12.50;99.90;;;13.33;100.00;98994.25;5049932;28;20465;-79
2023/05/26 06:38:42;;;;;;;12.90;6.00;;;12.60;99.90;;;13.37;100.00;98997.34;5046230;28;20493;-80
2023/05/26 06:41:10;;;;;;;11.93;6.00;;;12.60;99.90;;;13.40;100.00;99000.41;5047461;28;20472;-79
2023/05/26 06:43:39;;;;;;;8.57;5.03;;;12.60;99.90;;;13.43;100.00;99005.31;5047547;28;20468;-79
2023/05/26 06:46:09;;;;;;;10.60;4.80;;;12.60;99.90;;;13.49;100.00;99016.91;5046076;28;20995;-79
2023/05/26 06:48:38;;;;;;;14.80;6.13;;;12.70;99.90;;;13.52;100.00;99014.75;5048729;28;20599;-79
2023/05/26 06:51:07;;;;;;;11.67;5.40;;;12.70;99.90;;;13.56;100.00;99010.75;5046885;28;21068;-79
2023/05/26 06:53:37;;;;;;;10.80;5.50;;;12.70;99.90;;;13.61;100.00;99011.00;5047436;28;20611;-79
2023/05/26 06:56:06;;;;;;;11.73;5.40;;;12.80;99.90;;;13.65;100.00;99008.03;5045913;28;20496;-79
2023/05/26 06:58:36;;;;;;;12.17;4.90;;;12.80;99.90;;;13.71;100.00;99012.56;5045545;28;20515;-78
2023/05/26 07:01:06;;;;;;;17.53;6.33;;;12.90;99.90;;;13.75;100.00;99019.88;5048291;28;20515;-79
2023/05/26 07:03:36;;;;;;;15.53;8.77;;;12.90;99.90;;;13.81;100.00;99019.19;5047587;28;20522;-78
2023/05/26 07:06:07;;;;;;;11.30;6.90;;;13.00;99.90;;;13.90;100.00;99019.88;5045854;28;20998;-79
2023/05/26 07:08:36;;;;;;;12.83;5.63;;;13.20;99.90;;;13.92;100.00;99023.94;5045912;28;20556;-78
2023/05/26 07:11:06;;;;;;;8.30;5.20;;;13.10;99.90;;;13.94;100.00;99023.78;5046428;28;20475;-78
2023/05/26 07:13:35;;;;;;;13.30;5.73;;;13.20;99.90;;;13.97;100.00;99028.66;5044684;28;20603;-79
2023/05/26 07:16:04;;;;;;;12.77;5.83;;;13.20;99.90;;;14.04;100.00;99030.38;5044790;28;20465;-80
2023/05/26 07:18:33;;;;;;;13.07;5.63;;;13.30;99.90;;;14.05;100.00;99025.94;5044579;28;20473;-79
2023/05/26 07:21:03;;;;;;;14.97;5.50;;;13.30;99.90;;;14.08;100.00;99025.56;5045590;28;20472;-80
2023/05/26 07:23:32;;;;;;;18.93;6.70;;;13.40;99.90;;;14.13;100.00;99022.38;5045506;28;20465;-78
2023/05/26 07:26:01;;;;;;;16.07;5.53;;;13.40;99.90;;;14.11;100.00;99017.28;5044780;28;20499;-80
2023/05/26 07:28:31;;;;;;;14.13;5.33;;;13.30;99.90;;;14.15;100.00;99015.09;5046374;28;20462;-79
2023/05/26 07:30:59;;;;;;;8.00;5.50;;;13.30;99.90;;;14.20;100.00;99017.97;5045448;28;20461;-78
2023/05/26 07:33:28;;;;;;;12.50;5.40;;;13.40;99.90;;;14.21;100.00;99014.34;5048935;28;20902;-80
2023/05/26 07:35:58;;;;;;;15.07;5.70;;;13.40;99.90;;;14.22;100.00;99014.19;5051585;28;20459;-79
2023/05/26 07:38:28;;;;;;;12.50;5.63;;;13.40;99.90;;;14.23;100.00;99013.16;5046835;28;20491;-79
2023/05/26 07:40:56;;;;;;;11.27;6.10;;;13.40;99.90;;;14.26;100.00;99020.72;5049549;28;20465;-79
2023/05/26 07:43:25;;;;;;;21.63;6.50;;;13.40;99.90;;;14.29;100.00;99012.44;5051229;28;21078;-79
2023/05/26 07:45:54;;;;;;;11.57;5.30;;;13.50;99.90;;;14.34;100.00;99019.78;5048949;28;20498;-79
2023/05/26 07:48:23;;;;;;;13.97;6.20;;;13.60;99.90;;;14.40;100.00;99024.31;5050239;28;20469;-79
2023/05/26 07:50:52;;;;;;;13.20;6.77;;;13.60;99.90;;;14.47;100.00;99017.31;5048771;28;20467;-79
2023/05/26 07:53:22;;;;;;;16.23;6.47;;;13.80;99.90;;;14.48;100.00;99016.28;5048992;28;20492;-79
2023/05/26 07:55:52;;;;;;;14.13;5.33;;;13.70;99.90;;;14.55;100.00;99011.91;5049142;28;20973;-78
2023/05/26 07:58:21;;;;;;;21.63;5.90;;;13.80;99.90;;;14.61;100.00;99014.59;5051449;28;20461;-79
2023/05/26 08:00:50;;;;;;;10.50;4.73;;;13.80;99.90;;;14.65;100.00;99017.66;5051251;28;20462;-80
2023/05/26 08:03:19;;;;;;;13.60;5.50;;;13.90;99.90;;;14.69;100.00;99013.66;5049064;28;20558;-80
2023/05/26 08:05:49;;;;;;;10.63;5.13;;;14.00;99.90;;;14.70;100.00;99011.84;5051037;28;20489;-79
2023/05/26 08:08:18;;;;;;;13.60;6.00;;;14.00;99.90;;;14.73;100.00;99024.63;5047848;28;20461;-83
2023/05/26 08:10:47;;;;;;;14.10;6.37;;;14.00;99.90;;;14.79;100.00;99013.31;5047035;28;20473;-80
2023/05/26 08:13:17;;;;;;;17.40;5.90;;;14.00;99.90;;;14.84;100.00;99016.22;5049228;28;20576;-79
2023/05/26 08:15:46;;;;;;;19.13;6.53;;;14.10;99.90;;;14.87;100.00;99023.72;5049378;28;20874;-81
2023/05/26 08:18:15;;;;;;;13.23;5.00;;;14.10;99.90;;;14.95;100.00;99015.69;5051803;28;20576;-79
2023/05/26 08:20:44;;;;;;;12.33;5.53;;;14.20;99.90;;;14.99;100.00;99025.66;5049059;28;20464;-79
2023/05/26 08:23:12;;;;;;;13.27;5.43;;;14.20;99.90;;;15.03;100.00;99013.72;5051972;28;20489;-80
2023/05/26 08:25:44;;;;;;;13.30;5.90;;;14.40;99.90;;;15.07;100.00;99011.53;5051634;28;20514;-79
2023/05/26 08:28:13;;;;;;;13.57;4.63;;;14.30;99.90;;;15.09;100.00;99002.44;5047680;28;20468;-79
2023/05/26 08:30:44;;;;;;;16.37;6.03;;;14.30;99.90;;;15.14;100.00;99007.13;5049490;28;20477;-79
2023/05/26 08:33:13;;;;;;;16.60;5.90;;;14.40;99.90;;;15.17;100.00;99006.72;5048945;28;20485;-79
2023/05/26 08:35:41;;;;;;;14.63;5.50;;;14.40;99.90;;;15.21;100.00;99007.97;5049458;28;20459;-78
2023/05/26 08:38:10;;;;;;;12.90;5.20;;;14.40;99.90;;;15.28;100.00;99003.56;5049359;28;20496;-79
2023/05/26 08:40:40;;;;;;;16.10;6.10;;;14.50;99.90;;;15.37;100.00;99014.78;5049193;28;20458;-79
2023/05/26 08:43:13;;;;;;;12.70;5.47;;;14.70;99.90;;;15.36;100.00;99011.31;5048604;28;20472;-79
2023/05/26 08:45:45;;;;;;;11.80;5.40;;;14.60;99.90;;;15.38;100.00;99009.31;5046724;28;20468;-80
2023/05/26 08:48:16;;;;;;;18.83;5.60;;;14.60;99.90;;;15.46;100.00;99005.69;5046648;28;20468;-82
2023/05/26 08:50:55;;;;;;;14.90;5.87;;;14.70;99.90;;;15.59;100.00;99009.25;5049925;28;20458;-79
2023/05/26 08:53:24;;;;;;;12.37;4.70;;;14.90;99.90;;;15.67;100.00;99015.38;5048721;28;20491;-79
2023/05/26 08:55:54;;;;;;;11.57;5.03;;;15.00;99.90;;;15.71;100.00;99000.78;5048838;28;20496;-78
2023/05/26 08:58:24;;;;;;;9.73;4.30;;;15.00;99.90;;;15.75;100.00;99002.03;5048397;28;20477;-79
2023/05/26 09:00:56;;;;;;;9.57;5.17;;;15.00;99.90;;;15.77;100.00;99002.63;5049467;28;20872;-79
2023/05/26 09:03:25;;;;;;;15.30;5.37;;;15.00;99.90;;;15.77;100.00;99000.00;5048248;28;20535;-80
2023/05/26 09:05:55;;;;;;;9.87;5.20;;;15.00;99.90;;;15.81;100.00;98998.59;5047779;28;20458;-79
2023/05/26 09:08:23;;;;;;;11.90;6.00;;;15.00;99.90;;;15.82;100.00;98997.59;5047947;28;20471;-80
2023/05/26 09:10:52;;;;;;;15.87;6.57;;;15.00;99.90;;;15.92;100.00;99005.97;5047562;28;20969;-79
2023/05/26 09:13:22;;;;;;;10.63;5.40;;;15.20;99.90;;;15.94;100.00;99003.91;5049814;28;20467;-79
2023/05/26 09:15:54;;;;;;;13.77;5.80;;;15.20;99.90;;;15.97;100.00;98998.25;5049418;28;20501;-79
2023/05/26 09:18:42;;;;;;;21.33;6.60;;;15.20;99.90;;;16.02;100.00;98999.31;5048660;28;20479;-79
2023/05/26 09:21:12;;;;;;;15.10;6.03;;;15.30;99.90;;;16.09;100.00;98994.03;5048302;28;20535;-79
2023/05/26 09:23:41;;;;;;;14.23;5.97;;;15.40;99.90;;;16.12;100.00;99004.19;5046174;28;20461;-79
2023/05/26 09:26:12;;;;;;;13.17;5.53;;;15.40;99.90;;;16.20;100.00;99005.84;5046392;28;20533;-79
2023/05/26 09:28:49;;;;;;;16.33;5.27;;;15.60;99.90;;;16.23;100.00;99005.44;5049979;28;20460;-79
2023/05/26 09:31:20;;;;;;;20.27;6.40;;;15.60;99.90;;;16.27;100.00;98998.75;5048506;28;20469;-79
2023/05/26 09:33:49;;;;;;;13.30;4.50;;;15.60;99.90;;;16.29;100.00;99002.81;5049402;28;20491;-80
2023/05/26 09:36:23;;;;;;;11.93;5.10;;;15.60;99.90;;;16.40;100.00;99006.69;5050863;28;20480;-79
2023/05/26 09:38:53;;;;;;;10.93;4.80;;;15.80;99.90;;;16.45;100.00;99013.00;5047361;28;20488;-79
2023/05/26 09:41:22;;;;;;;13.60;4.80;;;15.80;99.90;;;16.46;100.00;99009.34;5049324;28;20477;-78
2023/05/26 09:43:52;;;;;;;16.03;5.27;;;15.70;99.90;;;16.50;100.00;99005.28;5048719;28;20464;-80
2023/05/26 09:46:24;;;;;;;10.60;5.07;;;15.80;99.90;;;16.54;100.00;98992.50;5047420;28;20487;-78
2023/05/26 09:48:53;;;;;;;14.00;5.23;;;15.80;99.90;;;16.63;100.00;98990.50;5045701;28;20465;-79
2023/05/26 09:51:30;;;;;;;19.47;5.33;;;15.90;99.90;;;16.70;100.00;99004.53;5045669;28;20464;-78
2023/05/26 09:54:08;;;;;;;10.43;5.10;;;16.00;99.90;;;16.72;100.00;98999.88;5045119;28;20473;-79
2023/05/26 09:56:48;;;;;;;13.57;5.00;;;15.90;99.90;;;16.78;100.00;98994.59;5045448;28;20449;-79
2023/05/26 09:59:19;;;;;;;12.37;4.50;;;16.10;99.90;;;16.82;100.00;98995.00;5046837;28;20485;-79
2023/05/26 10:01:54;;;;;;;10.10;5.10;;;16.20;99.90;;;16.87;100.00;98993.34;5043953;28;20559;-79
2023/05/26 10:04:23;;;;;;;15.40;4.63;;;16.20;99.90;;;16.94;100.00;98999.44;5044964;28;20461;-79
2023/05/26 10:06:54;;;;;;;12.13;5.20;;;16.20;99.90;;;16.98;100.00;98998.03;5045907;28;20457;-79
2023/05/26 10:09:25;;;;;;;10.57;4.87;;;16.20;99.90;;;17.01;100.00;98996.78;5045821;28;20963;-79
2023/05/26 10:11:58;;;;;;;11.73;5.37;;;16.20;99.90;;;17.11;100.00;98997.22;5045909;28;20558;-79
2023/05/26 10:14:28;;;;;;;18.83;5.07;;;16.40;99.90;;;17.15;100.00;98997.63;5046189;28;20530;-79
2023/05/26 10:16:58;;;;;;;15.30;5.10;;;16.40;99.90;;;17.16;100.00;98983.38;5046118;28;20539;-79
2023/05/26 10:19:28;;;;;;;10.30;5.00;;;16.50;99.90;;;17.23;100.00;98992.91;5046683;28;20477;-79
2023/05/26 10:22:09;;;;;;;10.57;5.37;;;16.50;99.90;;;17.29;100.00;99000.03;5045965;28;20492;-79